Maersk Essen — V7UQ8 — position and weather

sailwx.info

Track history (hours):
 
Tides and Currents Weather Stations Pressure Air Temp Water Temp Dewpoint Dewpoint Depression Visibility Wind Speed Wind Dir Waves Ship Positions

Maersk Essen

Last reported at 2014-Dec-11 19:33 UTC. Time now 2014-Dec-18 23:51 UTC.
Position N 01°53' E 102°21'.

Length 367 m; draft 13.2 m.

Type: Ship (hazmat cat A). MMSI: 538004007.

Date/timePositionNaut miles runAvg speedWind from/ knotsBaromVisibWave heightAir tempDewpointWater temp
2014-Dec-11 19:33N 01°53' E 102°21'1818.1
2014-Dec-11 18:33N 01°46' E 102°38'1817.4
2014-Dec-11 17:33N 01°38' E 102°54'60 2.1
2014-Dec-10 12:33N 01°10' E 103°47'1514.7
2014-Dec-10 11:33N 01°15' E 104°00'  
2014-Dec-06 20:33N 22°18' E 114°06'2 0.1
2014-Dec-06 03:06N 22°20' E 114°07'11 7.0
2014-Dec-06 01:33N 22°10' E 114°13'63614.5
2014-Dec-04 05:32N 29°40' E 122°33'1313.4
2014-Dec-04 04:33N 29°45' E 122°19'1312.9
2014-Dec-04 03:32N 29°55' E 122°09'1414.6
2014-Dec-04 02:33N 29°57' E 121°52'2 0.8
2014-Dec-04 00:03N 29°57' E 121°50'0 0.0
2014-Dec-03 23:21N 29°57' E 121°50'0 0.0
2014-Dec-03 22:33N 29°57' E 121°50'0 0.0
2014-Dec-03 21:33N 29°57' E 121°50'0 0.0
2014-Dec-03 20:33N 29°57' E 121°50'0 0.0
2014-Dec-03 19:27N 29°57' E 121°50'0 0.0
2014-Dec-03 18:27N 29°57' E 121°50'0 0.0
2014-Dec-03 17:33N 29°57' E 121°50'0 0.0
2014-Dec-03 16:21N 29°57' E 121°50'0 0.0
2014-Dec-03 15:21N 29°57' E 121°50'0 0.0
2014-Dec-03 14:21N 29°57' E 121°50'0 0.0
2014-Dec-03 13:21N 29°57' E 121°50'0 0.0
2014-Dec-03 12:33N 29°57' E 121°50'0 0.0
2014-Dec-03 10:21N 29°57' E 121°50'0 0.0
2014-Dec-03 09:21N 29°57' E 121°50'0 0.0
2014-Dec-03 07:21N 29°57' E 121°50'0 0.0
2014-Dec-03 06:33N 29°57' E 121°50'0 0.0
2014-Dec-03 05:21N 29°57' E 121°50'0 0.0
2014-Dec-03 03:33N 29°57' E 121°50'0 0.0
2014-Dec-03 02:15N 29°57' E 121°50'0 0.0
2014-Dec-03 01:33N 29°57' E 121°50'0 0.0
2014-Dec-03 00:33N 29°57' E 121°50'0 0.0
2014-Dec-02 23:21N 29°57' E 121°50'0 0.0
2014-Dec-02 21:27N 29°57' E 121°50'0 0.6
2014-Dec-02 20:33N 29°57' E 121°51'10 9.9
2014-Dec-02 19:33N 29°56' E 122°02'1211.8
2014-Dec-02 18:34N 29°50' E 122°13'9 9.0
2014-Dec-02 17:33N 29°45' E 122°22'7 7.3
2014-Dec-02 16:34N 29°42' E 122°30'7 3.1
2014-Dec-02 14:11N 29°36' E 122°35'0 0.0
2014-Dec-01 23:05N 29°36' E 122°35'0 0.0
2014-Dec-01 20:29N 29°36' E 122°35'  
Track history (hours):
 
Tides and Currents Weather Stations Pressure Air Temp Water Temp Dewpoint Dewpoint Depression Visibility Wind Speed Wind Dir Waves Ship Positions

Maersk Essen

Last reported at 2014-Dec-11 19:33 UTC. Time now 2014-Dec-18 23:51 UTC.
Position N 01°53' E 102°21'.

Length 367 m; draft 13.2 m.

Type: Ship (hazmat cat A). MMSI: 538004007.

Date/timePositionNaut miles runAvg speedWind from/ knotsBaromVisibWave heightAir tempDewpointWater temp
2014-Dec-11 19:33N 01°53' E 102°21'1818.1
2014-Dec-11 18:33N 01°46' E 102°38'1817.4
2014-Dec-11 17:33N 01°38' E 102°54'60 2.1
2014-Dec-10 12:33N 01°10' E 103°47'1514.7
2014-Dec-10 11:33N 01°15' E 104°00'  
2014-Dec-06 20:33N 22°18' E 114°06'2 0.1
2014-Dec-06 03:06N 22°20' E 114°07'11 7.0
2014-Dec-06 01:33N 22°10' E 114°13'63614.5
2014-Dec-04 05:32N 29°40' E 122°33'1313.4
2014-Dec-04 04:33N 29°45' E 122°19'1312.9
2014-Dec-04 03:32N 29°55' E 122°09'1414.6
2014-Dec-04 02:33N 29°57' E 121°52'2 0.8
2014-Dec-04 00:03N 29°57' E 121°50'0 0.0
2014-Dec-03 23:21N 29°57' E 121°50'0 0.0
2014-Dec-03 22:33N 29°57' E 121°50'0 0.0
2014-Dec-03 21:33N 29°57' E 121°50'0 0.0
2014-Dec-03 20:33N 29°57' E 121°50'0 0.0
2014-Dec-03 19:27N 29°57' E 121°50'0 0.0
2014-Dec-03 18:27N 29°57' E 121°50'0 0.0
2014-Dec-03 17:33N 29°57' E 121°50'0 0.0
2014-Dec-03 16:21N 29°57' E 121°50'0 0.0
2014-Dec-03 15:21N 29°57' E 121°50'0 0.0
2014-Dec-03 14:21N 29°57' E 121°50'0 0.0
2014-Dec-03 13:21N 29°57' E 121°50'0 0.0
2014-Dec-03 12:33N 29°57' E 121°50'0 0.0
2014-Dec-03 10:21N 29°57' E 121°50'0 0.0
2014-Dec-03 09:21N 29°57' E 121°50'0 0.0
2014-Dec-03 07:21N 29°57' E 121°50'0 0.0
2014-Dec-03 06:33N 29°57' E 121°50'0 0.0
2014-Dec-03 05:21N 29°57' E 121°50'0 0.0
2014-Dec-03 03:33N 29°57' E 121°50'0 0.0
2014-Dec-03 02:15N 29°57' E 121°50'0 0.0
2014-Dec-03 01:33N 29°57' E 121°50'0 0.0
2014-Dec-03 00:33N 29°57' E 121°50'0 0.0
2014-Dec-02 23:21N 29°57' E 121°50'0 0.0
2014-Dec-02 21:27N 29°57' E 121°50'0 0.6
2014-Dec-02 20:33N 29°57' E 121°51'10 9.9
2014-Dec-02 19:33N 29°56' E 122°02'1211.8
2014-Dec-02 18:34N 29°50' E 122°13'9 9.0
2014-Dec-02 17:33N 29°45' E 122°22'7 7.3
2014-Dec-02 16:34N 29°42' E 122°30'7 3.1
2014-Dec-02 14:11N 29°36' E 122°35'0 0.0
2014-Dec-01 23:05N 29°36' E 122°35'0 0.0
2014-Dec-01 20:29N 29°36' E 122°35'  

Dump ship's entire track history